Time;durP1;ratioP1;P1;durP2;ratioP2;P2;SDS_P1;SDS_P2;PMS_P1;PMS_P2;Temp;Humidity;BMP_temperature;BMP_pressure;BME280_temperature;BME280_humidity;BME280_pressure;Samples;Min_cycle;Max_cycle;Signal;HPM_P1;HPM_P2
2022/03/15 00:02:12;;;;;;;;;;;;;;;-2.10;59.74;102439.77;123822;1102;104366;-78
2022/03/15 00:04:45;;;;;;;66.07;31.50;;;;;;;-2.15;59.86;102433.17;123818;1102;104284;-78
2022/03/15 00:07:23;;;;;;;67.70;34.20;;;;;;;-2.20;58.96;102433.58;123702;1102;104301;-78
2022/03/15 00:09:57;;;;;;;72.70;34.33;;;;;;;-2.26;59.96;102435.42;123770;1100;104329;-78
2022/03/15 00:12:30;;;;;;;69.80;34.30;;;;;;;-2.30;60.55;102432.31;123716;1100;104245;-78
2022/03/15 00:15:03;;;;;;;65.00;31.77;;;;;;;-2.31;60.49;102431.37;123733;1101;104252;-78
2022/03/15 00:17:35;;;;;;;66.23;32.60;;;;;;;-2.35;60.15;102426.63;123857;1099;104347;-78
2022/03/15 00:20:11;;;;;;;67.13;32.83;;;;;;;-2.37;61.38;102428.08;123704;1102;104203;-78
2022/03/15 00:22:46;;;;;;;63.63;32.97;;;;;;;-2.40;60.40;102417.42;123832;1102;104333;-78
2022/03/15 00:25:21;;;;;;;64.30;32.20;;;;;;;-2.42;60.41;102424.05;123648;1100;104286;-78
2022/03/15 00:27:54;;;;;;;65.53;33.00;;;;;;;-2.43;60.69;102427.34;123610;1100;104251;-79
2022/03/15 00:30:28;;;;;;;67.27;35.33;;;;;;;-2.46;60.24;102425.36;123676;1102;104527;-79
2022/03/15 00:33:01;;;;;;;68.65;34.15;;;;;;;-2.49;59.47;102419.84;123729;1102;104424;-78
2022/03/15 00:35:35;;;;;;;72.43;35.50;;;;;;;-2.51;59.85;102416.16;123322;1102;104303;-78
2022/03/15 00:38:10;;;;;;;69.00;35.20;;;;;;;-2.49;59.50;102412.14;123367;1103;104377;-79
2022/03/15 00:40:43;;;;;;;70.90;35.30;;;;;;;-2.46;59.62;102421.84;123539;1103;104342;-78
2022/03/15 00:43:16;;;;;;;70.43;35.13;;;;;;;-2.47;60.52;102414.89;123350;1105;104441;-79
2022/03/15 00:45:47;;;;;;;68.03;34.53;;;;;;;-2.46;59.31;102411.56;123367;1102;104283;-79
2022/03/15 00:48:19;;;;;;;67.10;33.97;;;;;;;-2.48;59.49;102416.52;123554;1102;104368;-78
2022/03/15 00:50:53;;;;;;;74.57;36.27;;;;;;;-2.46;59.42;102409.93;123720;1102;104552;-79
2022/03/15 00:53:24;;;;;;;68.97;33.53;;;;;;;-2.45;59.29;102408.27;123647;1102;104434;-78
2022/03/15 00:55:57;;;;;;;70.40;36.50;;;;;;;-2.46;59.09;102401.27;123684;1102;104425;-78
2022/03/15 00:58:29;;;;;;;71.40;35.83;;;;;;;-2.49;60.38;102394.14;123432;1102;104201;-77
2022/03/15 01:01:00;;;;;;;68.40;33.30;;;;;;;-2.48;59.65;102395.05;123264;1102;105834;-78
2022/03/15 01:03:33;;;;;;;70.20;35.73;;;;;;;-2.53;60.26;102390.27;123745;1102;104335;-79
2022/03/15 01:06:06;;;;;;;74.80;35.73;;;;;;;-2.56;60.12;102395.05;123790;1102;104307;-79
2022/03/15 01:08:37;;;;;;;74.73;36.10;;;;;;;-2.56;60.52;102378.72;123716;1102;104348;-78
2022/03/15 01:11:11;;;;;;;72.17;35.63;;;;;;;-2.53;60.06;102382.55;123669;1102;104341;-78
2022/03/15 01:13:45;;;;;;;73.25;37.05;;;;;;;-2.50;60.12;102383.67;123881;1102;104232;-79
2022/03/15 01:16:16;;;;;;;;;;;;;;;-2.50;61.39;102381.11;123730;1102;104267;-78
2022/03/15 01:18:49;;;;;;;69.40;34.30;;;;;;;-2.50;59.76;102384.58;123698;1098;104637;-78
2022/03/15 01:21:22;;;;;;;69.97;34.33;;;;;;;-2.55;60.94;102385.70;123748;1099;104256;-79
2022/03/15 01:23:54;;;;;;;67.67;34.07;;;;;;;-2.59;60.60;102386.97;123890;1099;104238;-79
2022/03/15 01:26:27;;;;;;;66.07;33.17;;;;;;;-2.65;60.35;102381.14;123908;1099;104341;-79
2022/03/15 01:29:02;;;;;;;63.00;31.80;;;;;;;-2.71;60.33;102383.89;124047;1102;104253;-79
2022/03/15 01:31:39;;;;;;;63.67;33.90;;;;;;;-2.79;60.47;102384.64;123764;1102;104188;-79
2022/03/15 01:34:12;;;;;;;68.73;34.30;;;;;;;-2.86;60.48;102376.92;123698;1102;104313;-79
2022/03/15 01:36:44;;;;;;;70.43;34.60;;;;;;;-2.92;61.01;102383.89;123909;1100;104395;-79
2022/03/15 01:39:16;;;;;;;67.87;35.33;;;;;;;-2.98;61.07;102383.16;123739;1102;104326;-78
2022/03/15 01:41:48;;;;;;;65.80;34.53;;;;;;;-3.06;60.74;102379.67;123772;1098;104338;-78
2022/03/15 01:44:22;;;;;;;77.00;35.47;;;;;;;-3.12;60.83;102381.50;123861;1099;104350;-78
2022/03/15 01:46:55;;;;;;;73.10;35.97;;;;;;;-3.16;61.50;102384.45;123907;1099;104316;-78
2022/03/15 01:49:28;;;;;;;73.47;33.83;;;;;;;-3.19;60.57;102390.13;123782;1102;104389;-78
2022/03/15 01:52:01;;;;;;;69.12;35.30;;;;;;;-3.18;61.72;102396.17;123616;1101;104646;-78
2022/03/15 01:54:37;;;;;;;67.50;33.97;;;;;;;-3.23;61.23;102385.34;123622;1102;104236;-77
2022/03/15 01:57:11;;;;;;;77.07;37.10;;;;;;;-3.25;61.24;102394.52;123675;1102;104306;-78
2022/03/15 01:59:44;;;;;;;66.80;33.40;;;;;;;-3.33;61.58;102391.02;123750;1102;104265;-78
2022/03/15 02:02:19;;;;;;;73.77;35.87;;;;;;;-3.35;61.48;102396.69;123717;1099;104418;-78
2022/03/15 02:04:52;;;;;;;74.90;37.10;;;;;;;-3.33;61.42;102398.72;123539;1099;104319;-78
2022/03/15 02:07:27;;;;;;;66.30;33.90;;;;;;;-3.30;61.46;102396.53;123576;1102;104326;-78
2022/03/15 02:09:59;;;;;;;63.70;32.57;;;;;;;-3.26;61.35;102398.75;123488;1102;105706;-78
2022/03/15 02:12:31;;;;;;;68.20;33.57;;;;;;;-3.27;61.21;102396.90;123634;1102;104635;-78
2022/03/15 02:15:03;;;;;;;68.10;33.40;;;;;;;-3.27;62.08;102393.42;123882;1102;104536;-78
2022/03/15 02:17:37;;;;;;;60.93;31.40;;;;;;;-3.33;62.09;102393.59;123668;1102;104297;-78
2022/03/15 02:20:10;;;;;;;64.30;33.45;;;;;;;-3.40;61.49;102395.22;123584;1099;104350;-78
2022/03/15 02:22:43;;;;;;;62.33;31.30;;;;;;;-3.47;62.39;102397.05;123845;1102;104386;-78
2022/03/15 02:25:15;;;;;;;63.45;31.00;;;;;;;-3.50;62.73;102395.76;123612;1099;104273;-78
2022/03/15 02:27:47;;;;;;;68.73;29.83;;;;;;;-3.51;62.71;102397.38;123580;1099;104175;-78
2022/03/15 02:30:21;;;;;;;63.43;32.13;;;;;;;-3.55;62.30;102394.25;123565;1099;104281;-78
2022/03/15 02:32:54;;;;;;;66.10;33.03;;;;;;;-3.58;61.89;102397.39;123740;1102;104350;-78
2022/03/15 02:35:26;;;;;;;66.90;31.85;;;;;;;-3.61;62.32;102395.35;123588;1102;104716;-78
2022/03/15 02:38:01;;;;;;;63.83;31.23;;;;;;;-3.62;62.02;102396.07;123795;1102;104255;-78
2022/03/15 02:40:33;;;;;;;62.37;33.17;;;;;;;-3.64;62.13;102397.55;123672;1102;104396;-78
2022/03/15 02:43:06;;;;;;;65.87;31.80;;;;;;;-3.65;61.89;102400.83;123707;1102;104251;-78
2022/03/15 02:45:38;;;;;;;62.20;31.63;;;;;;;-3.65;62.06;102402.48;123829;1102;104245;-78
2022/03/15 02:48:11;;;;;;;60.70;31.10;;;;;;;-3.65;62.33;102397.36;123937;1099;104309;-79
2022/03/15 02:50:45;;;;;;;63.80;32.03;;;;;;;-3.67;62.49;102397.17;123840;1099;104188;-79
2022/03/15 02:53:18;;;;;;;61.07;30.70;;;;;;;-3.68;62.43;102400.45;123798;1100;104384;-79
2022/03/15 02:55:51;;;;;;;64.63;30.83;;;;;;;-3.69;62.48;102396.07;123845;1102;104288;-79
2022/03/15 02:58:22;;;;;;;68.57;32.40;;;;;;;-3.69;62.54;102396.07;123915;1102;104278;-79
2022/03/15 03:00:54;;;;;;;63.17;31.80;;;;;;;-3.67;62.68;102392.03;123721;1100;104264;-79
2022/03/15 03:03:27;;;;;;;64.93;31.23;;;;;;;-3.67;62.04;102399.73;123658;1102;104223;-79
2022/03/15 03:06:00;;;;;;;63.60;31.27;;;;;;;-3.69;62.48;102396.07;123764;1102;104370;-79
2022/03/15 03:08:34;;;;;;;71.67;32.37;;;;;;;-3.68;62.57;102392.75;123653;1102;104762;-78
2022/03/15 03:11:07;;;;;;;64.10;31.87;;;;;;;-3.72;62.22;102393.13;123741;1102;104236;-78
2022/03/15 03:13:44;;;;;;;66.27;31.97;;;;;;;-3.76;62.85;102388.34;123642;1102;104676;-78
2022/03/15 03:16:16;;;;;;;65.00;31.15;;;;;;;-3.80;62.52;102393.84;123650;1102;104319;-78
2022/03/15 03:18:48;;;;;;;70.35;32.95;;;;;;;-3.80;62.13;102396.41;123702;1100;104310;-78
2022/03/15 03:21:20;;;;;;;64.47;31.13;;;;;;;-3.77;62.36;102390.72;123594;1100;104310;-78
2022/03/15 03:23:53;;;;;;;63.10;29.73;;;;;;;-3.78;62.55;102397.50;123763;1102;104216;-78
2022/03/15 03:26:28;;;;;;;61.23;30.85;;;;;;;-3.82;62.69;102395.28;123708;1099;104216;-77
2022/03/15 03:29:03;;;;;;;57.53;28.97;;;;;;;-3.85;63.23;102384.64;123739;1100;104290;-78
2022/03/15 03:31:37;;;;;;;62.20;31.40;;;;;;;-3.89;63.15;102391.05;123706;1099;104511;-78
2022/03/15 03:34:10;;;;;;;72.50;33.55;;;;;;;-3.92;62.63;102389.77;123633;1102;104321;-78
2022/03/15 03:36:43;;;;;;;64.93;31.37;;;;;;;-3.97;62.99;102387.53;123784;1102;104306;-78
2022/03/15 03:39:16;;;;;;;67.37;32.85;;;;;;;-3.98;62.57;102384.78;123670;1102;105319;-78
2022/03/15 03:41:49;;;;;;;61.57;30.90;;;;;;;-3.98;62.92;102388.25;123742;1102;104427;-78
2022/03/15 03:44:21;;;;;;;63.07;31.00;;;;;;;-4.01;63.55;102387.88;123722;1099;104245;-78
2022/03/15 03:46:53;;;;;;;62.33;29.47;;;;;;;-4.05;63.54;102383.11;123755;1099;104261;-78
2022/03/15 03:49:32;;;;;;;53.40;26.25;;;;;;;-4.10;63.39;102381.60;123918;1099;104216;-78
2022/03/15 03:52:07;;;;;;;62.70;29.03;;;;;;;-4.12;63.16;102379.59;123778;1102;104201;-78
2022/03/15 03:54:40;;;;;;;61.50;28.37;;;;;;;-4.15;63.76;102377.56;123705;1102;104319;-78
2022/03/15 03:57:13;;;;;;;55.60;27.00;;;;;;;-4.13;64.45;102380.31;123325;1102;104482;-77
2022/03/15 03:59:45;;;;;;;57.93;28.07;;;;;;;-4.16;64.31;102373.15;123223;1102;104297;-78
2022/03/15 04:02:19;;;;;;;59.27;26.73;;;;;;;-4.19;63.98;102375.33;123155;1102;104342;-77
2022/03/15 04:04:52;;;;;;;57.23;27.90;;;;;;;-4.20;63.99;102378.64;123311;1102;104332;-77
2022/03/15 04:07:24;;;;;;;59.47;29.00;;;;;;;-4.17;63.35;102376.46;123214;1102;104320;-77
2022/03/15 04:09:56;;;;;;;57.40;30.83;;;;;;;-4.10;63.48;102375.56;123186;1102;104489;-78
2022/03/15 04:12:28;;;;;;;61.00;28.00;;;;;;;-4.06;63.69;102381.27;123100;1102;104354;-78
2022/03/15 04:15:03;;;;;;;63.00;30.87;;;;;;;-4.02;63.21;102379.98;123174;1102;104246;-79
2022/03/15 04:17:38;;;;;;;62.60;29.87;;;;;;;-4.00;63.32;102382.03;123214;1102;104267;-79
2022/03/15 04:20:09;;;;;;;;;;;;;;;-3.97;64.25;102377.28;123334;1101;104354;-78
2022/03/15 04:22:42;;;;;;;58.83;27.83;;;;;;;-3.98;63.75;102385.69;123415;1099;104437;-78
2022/03/15 04:25:14;;;;;;;57.43;28.00;;;;;;;-4.00;64.02;102388.81;123322;1099;104338;-79
2022/03/15 04:27:45;;;;;;;58.57;27.13;;;;;;;-4.02;65.02;102386.06;123320;1099;104286;-79
2022/03/15 04:30:18;;;;;;;60.33;28.50;;;;;;;-4.05;64.88;102372.86;123827;1099;104341;-80
2022/03/15 04:32:52;;;;;;;57.87;29.60;;;;;;;-4.07;64.81;102381.08;123639;1099;104165;-79
2022/03/15 04:35:26;;;;;;;61.85;28.70;;;;;;;-4.13;64.09;102376.09;123828;1102;104413;-80
2022/03/15 04:38:00;;;;;;;54.83;27.60;;;;;;;-4.18;63.70;102369.48;123919;1100;104249;-80
2022/03/15 04:40:33;;;;;;;54.23;25.40;;;;;;;-4.20;64.27;102366.73;124063;1102;104262;-80
2022/03/15 04:43:06;;;;;;;57.67;27.20;;;;;;;-4.16;64.29;102360.33;124151;1102;104322;-80
2022/03/15 04:45:38;;;;;;;57.37;26.57;;;;;;;-4.13;63.99;102360.71;123960;1102;104342;-80
2022/03/15 04:48:11;;;;;;;53.30;26.15;;;;;;;-4.10;64.64;102362.75;123676;1102;104402;-79
2022/03/15 04:50:42;;;;;;;49.87;26.07;;;;;;;-4.09;64.53;102360.38;123694;1102;104172;-80
2022/03/15 04:53:16;;;;;;;52.87;25.80;;;;;;;-4.08;64.99;102356.15;123998;1099;104251;-80
2022/03/15 04:55:53;;;;;;;57.07;27.37;;;;;;;-4.07;65.25;102361.47;123960;1099;104246;-79
2022/03/15 04:58:27;;;;;;;50.25;24.02;;;;;;;-4.02;65.80;102355.28;123619;1099;104261;-80
2022/03/15 05:00:58;;;;;;;;;;;;;;;-3.98;66.70;102356.57;123727;1099;104217;-79
2022/03/15 05:03:35;;;;;;;53.83;24.27;;;;;;;-3.93;65.25;102352.01;123390;1099;104249;-79
2022/03/15 05:06:06;;;;;;;58.47;26.50;;;;;;;-3.90;64.66;102344.69;123821;1102;104304;-79
2022/03/15 05:08:40;;;;;;;52.80;26.50;;;;;;;-3.87;65.22;102352.77;124223;1102;104233;-79
2022/03/15 05:11:11;;;;;;;54.80;25.73;;;;;;;-3.84;65.45;102351.48;124195;1101;104213;-80
2022/03/15 05:13:47;;;;;;;53.87;26.53;;;;;;;-3.78;65.26;102342.73;124439;1102;104178;-81
2022/03/15 05:16:21;;;;;;;54.10;26.77;;;;;;;-3.75;65.45;102336.31;124536;1101;104313;-81
2022/03/15 05:18:57;;;;;;;61.27;27.83;;;;;;;-3.69;65.17;102339.63;124299;1102;105041;-81
2022/03/15 05:21:29;;;;;;;56.07;26.37;;;;;;;-3.64;65.11;102342.75;124418;1102;104221;-80
2022/03/15 05:24:01;;;;;;;59.50;29.47;;;;;;;-3.57;64.42;102341.84;124267;1101;104236;-81
2022/03/15 05:26:34;;;;;;;60.10;29.17;;;;;;;-3.49;64.33;102334.34;124115;1102;104268;-81
2022/03/15 05:29:07;;;;;;;54.20;26.45;;;;;;;-3.41;64.45;102327.58;124322;1101;104347;-81
2022/03/15 05:31:39;;;;;;;51.87;26.60;;;;;;;-3.31;64.14;102327.02;124258;1102;104338;-80
2022/03/15 05:34:12;;;;;;;54.13;26.73;;;;;;;-3.22;64.69;102328.13;124334;1100;104232;-81
2022/03/15 05:36:45;;;;;;;54.50;27.20;;;;;;;-3.15;65.20;102327.20;124117;1102;104262;-81
2022/03/15 05:39:17;;;;;;;56.73;28.80;;;;;;;-3.08;65.38;102325.55;124401;1102;104163;-81
2022/03/15 05:41:50;;;;;;;54.70;28.03;;;;;;;-3.00;64.82;102321.33;123997;1102;104409;-81
2022/03/15 05:44:22;;;;;;;54.87;25.93;;;;;;;-2.92;65.48;102318.00;124320;1102;104242;-81
2022/03/15 05:46:55;;;;;;;54.83;27.97;;;;;;;-2.84;64.80;102313.77;124227;1102;104367;-81
2022/03/15 05:49:28;;;;;;;54.33;28.07;;;;;;;-2.73;65.43;102313.41;124287;1102;104163;-81
2022/03/15 05:52:03;;;;;;;55.03;27.67;;;;;;;-2.62;65.17;102314.64;124338;1102;104300;-81
2022/03/15 05:54:37;;;;;;;53.23;27.57;;;;;;;-2.52;65.56;102314.09;124145;1099;104287;-81
2022/03/15 05:57:09;;;;;;;53.05;27.52;;;;;;;-2.42;65.52;102310.92;124356;1102;104178;-80
2022/03/15 05:59:42;;;;;;;59.37;27.73;;;;;;;-2.33;65.33;102304.28;124216;1102;104390;-80
2022/03/15 06:02:13;;;;;;;57.77;27.77;;;;;;;-2.23;65.80;102296.91;124129;1102;104326;-81
2022/03/15 06:04:45;;;;;;;61.93;29.70;;;;;;;-2.12;65.81;102299.78;124254;1102;104383;-81
2022/03/15 06:07:17;;;;;;;48.33;25.83;;;;;;;-2.03;65.87;102300.84;124027;1102;104338;-80
2022/03/15 06:09:49;;;;;;;56.33;28.73;;;;;;;-1.94;66.25;102306.14;124076;1101;104306;-79
2022/03/15 06:12:22;;;;;;;62.23;29.07;;;;;;;-1.84;65.56;102307.36;123835;1102;104320;-80
2022/03/15 06:14:54;;;;;;;52.20;27.03;;;;;;;-1.71;65.19;102313.91;123846;1102;104230;-80
2022/03/15 06:17:40;;;;;;;52.03;26.80;;;;;;;-1.61;65.13;102316.77;124190;1102;104265;-81
2022/03/15 06:20:14;;;;;;;55.93;27.43;;;;;;;-1.48;65.69;102313.91;124402;1100;104089;-83
2022/03/15 06:22:48;;;;;;;49.97;25.67;;;;;;;-1.39;65.46;102309.80;124255;1102;104753;-81
2022/03/15 06:25:32;;;;;;;59.53;28.70;;;;;;;-1.30;65.61;102318.55;124561;1102;104246;-79
2022/03/15 06:28:08;;;;;;;58.87;28.50;;;;;;;-1.24;64.87;102313.19;124559;1099;102113;-80
2022/03/15 06:30:57;;;;;;;62.60;32.37;;;;;;;-1.16;66.07;102314.05;124621;1099;104328;-81
2022/03/15 06:33:44;;;;;;;;;;;;;;;-1.09;65.77;102321.73;124852;1099;104414;-81
2022/03/15 06:36:31;;;;;;;63.57;33.03;;;;;;;-1.01;65.37;102308.03;124622;1102;104162;-80
2022/03/15 06:39:11;;;;;;;59.10;31.53;;;;;;;-0.92;65.69;102309.05;124937;1102;104271;-82
2022/03/15 06:41:55;;;;;;;63.50;31.17;;;;;;;-0.75;65.41;102307.39;124755;1102;102190;-81
2022/03/15 06:44:32;;;;;;;64.10;31.70;;;;;;;-0.60;65.30;102305.59;124741;1102;104305;-82
2022/03/15 06:47:14;;;;;;;60.63;29.33;;;;;;;-0.47;65.63;102303.58;124544;1099;104300;-81
2022/03/15 06:49:50;;;;;;;62.23;30.27;;;;;;;-0.31;64.93;102297.50;124794;1099;104191;-81
2022/03/15 06:52:32;;;;;;;61.13;31.73;;;;;;;-0.15;65.65;102300.09;125384;1102;104219;-83
2022/03/15 06:57:59;;;;;;;62.37;30.50;;;;;;;0.16;64.97;102301.70;124751;1102;104594;-79
2022/03/15 07:00:36;;;;;;;58.90;27.73;;;;;;;0.31;65.11;102307.55;124551;1102;104249;-79
2022/03/15 07:03:13;;;;;;;55.07;28.37;;;;;;;0.48;64.98;102309.33;125000;1102;104354;-79
2022/03/15 07:05:49;;;;;;;55.23;27.37;;;;;;;0.65;65.09;102311.09;125342;1102;104057;-80
2022/03/15 07:08:27;;;;;;;53.90;26.10;;;;;;;0.81;64.87;102300.67;125033;1099;104390;-79
2022/03/15 07:13:48;;;;;;;51.37;25.50;;;;;;;1.15;64.37;102306.74;124246;1099;104322;-79
2022/03/15 07:16:36;;;;;;;50.43;25.90;;;;;;;1.31;64.48;102301.45;124184;1102;104367;-79
2022/03/15 07:19:43;;;;;;;53.90;26.10;;;;;;;1.47;64.24;102301.36;124411;1102;104318;-79
2022/03/15 07:22:44;;;;;;;54.57;25.30;;;;;;;1.65;64.31;102304.87;124679;1100;102123;-83
2022/03/15 07:26:14;;;;;;;53.20;26.37;;;;;;;1.72;64.08;102289.20;124822;1102;102726;-82
2022/03/15 07:28:49;;;;;;;51.43;23.43;;;;;;;2.06;64.16;102308.09;124375;1102;108781;-80
2022/03/15 07:31:26;;;;;;;49.90;22.37;;;;;;;2.28;63.91;102314.60;124323;1102;104305;-81
2022/03/15 07:34:05;;;;;;;48.73;23.07;;;;;;;2.47;63.43;102313.81;124213;1102;104306;-79
2022/03/15 07:36:39;;;;;;;48.07;22.77;;;;;;;2.67;62.98;102318.34;124289;1102;104242;-79
2022/03/15 07:39:14;;;;;;;;;;;;;;;2.85;60.68;102314.92;124406;1100;104283;-79
2022/03/15 07:41:53;;;;;;;42.70;20.20;;;;;;;3.03;63.14;102314.84;124114;1100;104252;-81
2022/03/15 07:44:45;;;;;;;46.60;20.20;;;;;;;3.19;62.36;102312.02;124332;1102;104211;-82
2022/03/15 07:47:21;;;;;;;39.13;18.93;;;;;;;3.36;62.74;102306.72;123871;1102;104229;-81
2022/03/15 07:49:54;;;;;;;44.90;18.33;;;;;;;3.52;61.15;102300.36;124358;1102;105632;-83
2022/03/15 07:52:32;;;;;;;39.00;17.43;;;;;;;3.66;61.76;102312.03;124444;1102;104367;-81
2022/03/15 07:55:09;;;;;;;40.07;18.80;;;;;;;3.82;61.92;102309.16;124084;1101;104265;-83
2022/03/15 07:57:45;;;;;;;38.50;18.03;;;;;;;3.94;60.75;102298.23;124188;1101;104251;-80
2022/03/15 08:00:22;;;;;;;35.07;18.37;;;;;;;4.10;59.89;102291.83;124568;1099;104277;-79
2022/03/15 08:02:55;;;;;;;39.07;19.30;;;;;;;4.25;60.05;102281.88;124278;1102;104229;-80
2022/03/15 08:05:32;;;;;;;37.65;18.20;;;;;;;4.39;60.59;102280.52;124004;1099;104242;-80
2022/03/15 08:08:15;;;;;;;36.07;17.53;;;;;;;4.51;58.99;102276.41;124069;1099;104329;-80
2022/03/15 08:11:06;;;;;;;37.20;18.60;;;;;;;4.57;59.05;102273.45;123762;1100;104270;-82
2022/03/15 08:13:43;;;;;;;36.70;19.07;;;;;;;4.67;59.29;102269.20;123904;1102;104258;-82
2022/03/15 08:16:23;;;;;;;38.40;19.07;;;;;;;4.77;59.11;102268.30;124156;1102;104230;-83
2022/03/15 08:19:28;;;;;;;40.20;17.90;;;;;;;4.90;59.75;102265.07;124225;1100;104541;-83
2022/03/15 08:22:18;;;;;;;38.50;17.30;;;;;;;5.06;58.01;102263.80;124039;1102;104319;-81
2022/03/15 08:25:11;;;;;;;33.67;15.87;;;;;;;5.23;58.41;102258.34;124039;1099;104680;-81
2022/03/15 08:27:55;;;;;;;33.93;16.77;;;;;;;5.36;58.48;102258.62;123583;1102;104344;-81
2022/03/15 08:33:40;;;;;;;33.60;16.53;;;;;;;5.63;58.46;102251.30;123865;1102;104393;-81
2022/03/15 08:36:38;;;;;;;35.80;16.50;;;;;;;5.76;57.77;102251.55;124120;1102;104358;-81
2022/03/15 08:39:24;;;;;;;32.78;15.68;;;;;;;5.89;57.53;102244.72;123686;1104;104176;-82
2022/03/15 08:45:35;;;;;;;28.27;14.13;;;;;;;6.07;54.96;102247.98;124514;1102;104175;-82
2022/03/15 08:48:55;;;;;;;30.37;14.60;;;;;;;6.14;56.19;102241.56;124628;1102;103341;-80
2022/03/15 08:51:50;;;;;;;30.27;13.53;;;;;;;6.28;55.74;102236.69;124160;1105;104322;-79
2022/03/15 08:54:40;;;;;;;26.87;11.87;;;;;;;6.39;55.48;102219.30;123144;1105;104344;-81
2022/03/15 08:57:31;;;;;;;26.17;12.17;;;;;;;6.48;55.28;102224.33;124032;1105;104510;-82
2022/03/15 09:03:29;;;;;;;23.67;10.43;;;;;;;6.68;54.28;102207.65;124189;1105;104326;-81
2022/03/15 09:09:40;;;;;;;25.15;11.35;;;;;;;6.80;53.55;102198.17;124930;1103;104455;-83
2022/03/15 09:16:31;;;;;;;;;;;;;;;;;;;;;
2022/03/15 09:19:26;;;;;;;28.80;13.38;;;;;;;7.13;53.56;102196.35;125016;1109;102883;-83
2022/03/15 09:22:16;;;;;;;28.00;13.53;;;;;;;7.25;53.99;102205.94;124585;1105;104171;-82
2022/03/15 09:25:22;;;;;;;;;;;;;;;;;;;;;
2022/03/15 09:28:09;;;;;;;25.97;12.70;;;;;;;7.37;51.57;102201.66;124484;1105;102804;-82
2022/03/15 09:34:12;;;;;;;23.67;11.70;;;;;;;7.48;52.11;102190.30;123904;1105;104540;-84
2022/03/15 09:37:02;;;;;;;24.00;10.55;;;;;;;7.54;49.26;102195.99;123690;1105;104389;-81
2022/03/15 09:39:38;;;;;;;25.60;11.77;;;;;;;7.60;52.13;102192.01;123307;1105;104306;-81
2022/03/15 09:46:24;;;;;;;;;;;;;;;;;;;;;
2022/03/15 09:53:49;;;;;;;;;;;;;;;;;;;;;
2022/03/15 09:56:58;;;;;;;25.92;12.50;;;;;;;7.99;49.69;102151.31;125087;1102;104239;-80
2022/03/15 09:59:39;;;;;;;27.30;12.70;;;;;;;8.02;49.51;102146.30;124909;1102;104220;-81
2022/03/15 10:02:27;;;;;;;27.93;13.20;;;;;;;8.02;48.51;102143.69;124093;1103;104224;-81
2022/03/15 10:05:03;;;;;;;27.57;12.47;;;;;;;8.13;50.12;102139.23;124162;1102;104485;-79
2022/03/15 10:08:02;;;;;;;25.90;12.33;;;;;;;8.18;46.95;102141.39;125031;1102;104309;-81
2022/03/15 10:10:56;;;;;;;28.17;13.17;;;;;;;8.15;47.22;102135.95;125646;1102;104223;-81
2022/03/15 10:19:51;;;;;;;24.02;11.73;;;;;;;8.29;45.85;102113.39;124832;1100;104245;-79
2022/03/15 10:22:32;;;;;;;26.73;11.70;;;;;;;8.35;46.79;102112.89;124868;1102;104249;-82
2022/03/15 10:25:11;;;;;;;28.53;11.80;;;;;;;8.40;47.99;102103.69;124737;1100;104348;-80
2022/03/15 10:28:02;;;;;;;24.80;11.75;;;;;;;8.45;47.46;102097.09;124957;1100;102414;-79
2022/03/15 10:30:53;;;;;;;;;;;;;;;;;;;;;
2022/03/15 10:33:29;;;;;;;25.30;11.33;;;;;;;8.57;47.00;102090.10;124766;1099;102862;-77
2022/03/15 10:36:17;;;;;;;23.87;10.78;;;;;;;8.61;47.42;102083.36;123684;1102;104290;-76
2022/03/15 10:42:29;;;;;;;;;;;;;;;8.73;46.75;102078.07;123945;1099;104638;-79
2022/03/15 10:45:03;;;;;;;24.85;11.95;;;;;;;8.75;46.77;102072.12;123468;1099;104274;-82
2022/03/15 10:47:52;;;;;;;26.57;11.70;;;;;;;8.80;47.06;102070.75;123944;1099;104197;-80
2022/03/15 10:50:29;;;;;;;23.17;10.93;;;;;;;8.88;45.16;102067.72;124186;1099;104361;-81
2022/03/15 10:53:13;;;;;;;25.17;11.75;;;;;;;8.90;45.51;102059.17;124359;1099;104178;-81
2022/03/15 10:55:53;;;;;;;24.87;11.50;;;;;;;8.91;44.50;102061.00;124147;1099;104341;-82
2022/03/15 10:58:30;;;;;;;26.83;12.50;;;;;;;8.97;45.59;102050.91;124287;1099;105542;-81
2022/03/15 11:01:23;;;;;;;23.23;11.57;;;;;;;9.02;45.26;102045.98;124593;1102;102795;-81
2022/03/15 11:04:00;;;;;;;26.63;12.87;;;;;;;9.08;44.90;102046.39;124334;1100;104270;-79
2022/03/15 11:06:39;;;;;;;27.23;13.33;;;;;;;9.10;45.40;102036.95;124212;1100;104296;-79
2022/03/15 11:09:39;;;;;;;29.53;14.07;;;;;;;9.21;45.74;102028.87;124729;1099;108425;-81
2022/03/15 11:12:24;;;;;;;28.77;13.98;;;;;;;9.26;45.75;102025.76;124770;1099;104248;-80
2022/03/15 11:15:12;;;;;;;29.43;14.23;;;;;;;9.29;43.72;102030.30;124649;1099;104284;-80
2022/03/15 11:17:54;;;;;;;27.77;13.90;;;;;;;9.28;44.38;102024.13;124440;1102;104354;-79
2022/03/15 11:20:29;;;;;;;26.47;12.83;;;;;;;9.35;43.86;102020.22;124297;1102;104347;-81
2022/03/15 11:23:07;;;;;;;27.10;13.40;;;;;;;9.39;43.84;102010.84;124066;1099;104172;-82
2022/03/15 11:25:50;;;;;;;25.73;13.03;;;;;;;9.44;42.92;102009.41;126261;1101;102050;-83
2022/03/15 11:28:29;;;;;;;28.37;14.23;;;;;;;9.51;44.01;101996.80;126272;1099;101814;-83
2022/03/15 11:31:01;;;;;;;29.67;12.97;;;;;;;9.62;43.95;101988.73;126036;1102;104332;-81
2022/03/15 11:33:47;;;;;;;27.83;12.27;;;;;;;9.67;43.16;101982.95;124528;1102;104684;-82
2022/03/15 11:36:30;;;;;;;23.40;11.33;;;;;;;9.67;40.80;101980.33;124675;1101;104251;-82
2022/03/15 11:39:13;;;;;;;28.23;12.00;;;;;;;9.67;40.87;101985.56;124625;1099;104348;-80
2022/03/15 11:41:50;;;;;;;23.57;11.00;;;;;;;9.69;41.79;101983.05;123994;1102;104309;-79
2022/03/15 11:44:40;;;;;;;21.10;10.13;;;;;;;9.67;41.06;101982.95;123456;1102;104344;-79
2022/03/15 11:47:32;;;;;;;23.97;11.13;;;;;;;9.70;41.75;101969.14;123579;1102;104784;-79
2022/03/15 11:50:16;;;;;;;22.23;10.10;;;;;;;9.67;42.47;101961.98;124122;1102;104316;-79
2022/03/15 11:53:09;;;;;;;22.73;10.57;;;;;;;9.77;42.56;101957.31;123507;1102;104319;-79
2022/03/15 11:55:54;;;;;;;23.87;9.97;;;;;;;9.84;41.86;101954.27;123916;1099;104295;-82
2022/03/15 11:58:32;;;;;;;22.73;10.07;;;;;;;9.89;41.79;101951.14;124107;1099;104291;-79
2022/03/15 12:01:28;;;;;;;20.83;9.13;;;;;;;9.89;41.23;101945.89;123902;1099;104216;-80
2022/03/15 12:04:07;;;;;;;20.13;9.40;;;;;;;9.87;40.97;101937.00;123814;1102;104374;-84
2022/03/15 12:07:16;;;;;;;25.03;10.90;;;;;;;9.85;40.13;101930.77;123740;1104;104400;-81
2022/03/15 12:13:52;;;;;;;23.60;11.03;;;;;;;9.87;40.71;101917.76;124033;1105;104201;-80
2022/03/15 12:19:58;;;;;;;;;;;;;;;;;;;;;
2022/03/15 12:23:05;;;;;;;23.63;10.13;;;;;;;9.87;41.63;101892.44;124017;1102;104233;-82
2022/03/15 12:26:04;;;;;;;23.80;10.55;;;;;;;9.92;41.73;101889.20;124117;1106;104409;-80
2022/03/15 12:28:50;;;;;;;;;;;;;;;;;;;;;
2022/03/15 12:31:45;;;;;;;24.07;10.50;;;;;;;9.90;40.92;101886.48;123459;1105;104476;-80
2022/03/15 12:34:49;;;;;;;;;;;;;;;;;;;;;
2022/03/15 12:37:52;;;;;;;;;;;;;;;;;;;;;
2022/03/15 12:41:26;;;;;;;22.97;10.37;;;;;;;9.90;40.31;101869.02;123703;1105;104166;-80
2022/03/15 12:44:49;;;;;;;;;;;;;;;;;;;;;
2022/03/15 12:47:43;;;;;;;;;;;;;;;;;;;;;
2022/03/15 12:54:30;;;;;;;23.50;9.43;;;;;;;9.94;39.15;101856.09;123228;1105;104350;-80
2022/03/15 12:57:29;;;;;;;24.10;10.27;;;;;;;9.88;39.32;101854.92;123307;1106;104357;-81
2022/03/15 13:00:32;;;;;;;23.93;9.60;;;;;;;9.87;39.84;101849.59;124001;1105;104345;-82
2022/03/15 13:04:02;;;;;;;21.47;9.13;;;;;;;9.87;40.00;101834.75;123190;1105;104427;-82
2022/03/15 13:06:36;;;;;;;23.43;10.73;;;;;;;9.89;39.48;101843.64;123299;1105;104792;-81